createdAt,value
2022-11-19T00:00:26.290Z,73.33
2022-11-19T00:03:33.539Z,72.81
2022-11-19T00:06:37.997Z,70.97
2022-11-19T00:09:42.263Z,70.48
2022-11-19T00:12:56.015Z,70.26
2022-11-19T00:16:09.274Z,69.06
2022-11-19T00:19:15.522Z,68.21
2022-11-19T00:22:19.878Z,67.74
2022-11-19T00:25:28.356Z,66.24
2022-11-19T00:28:33.541Z,66.33
2022-11-19T00:31:38.665Z,65.43
2022-11-19T00:34:43.040Z,65.87
2022-11-19T00:37:47.310Z,64.88
2022-11-19T00:40:51.695Z,65.79
2022-11-19T00:43:56.551Z,64.66
2022-11-19T00:47:00.847Z,63.44
2022-11-19T00:50:05.590Z,62.49
2022-11-19T00:53:10.137Z,62.39
2022-11-19T00:56:16.825Z,63.68
2022-11-19T00:59:21.502Z,62.69
2022-11-19T01:02:26.169Z,61.99
2022-11-19T01:05:30.483Z,62.60
2022-11-19T01:08:34.850Z,62.26
2022-11-19T01:11:40.045Z,60.97
2022-11-19T01:14:44.578Z,61.43
2022-11-19T01:17:48.679Z,61.90
2022-11-19T01:20:52.929Z,61.58
2022-11-19T01:23:57.779Z,60.73
2022-11-19T01:27:01.762Z,60.12
2022-11-19T01:30:07.663Z,60.51
2022-11-19T01:33:12.548Z,60.48
2022-11-19T01:36:19.624Z,61.04
2022-11-19T01:39:23.747Z,63.27
2022-11-19T01:42:49.442Z,61.29
2022-11-19T01:45:55.245Z,62.31
2022-11-19T01:49:20.484Z,62.30
2022-11-19T01:52:25.657Z,61.50
2022-11-19T01:55:31.081Z,60.29
2022-11-19T01:58:42.557Z,61.20
2022-11-19T02:01:47.411Z,62.30
2022-11-19T02:04:53.794Z,62.75
2022-11-19T02:08:00.340Z,61.89
2022-11-19T02:11:22.588Z,61.62
2022-11-19T02:14:30.209Z,62.16
2022-11-19T02:18:03.450Z,62.38
2022-11-19T02:21:44.616Z,62.14
2022-11-19T02:24:56.767Z,63.06
2022-11-19T02:28:04.339Z,63.98
2022-11-19T02:31:29.972Z,64.61
2022-11-19T02:34:43.972Z,63.66
2022-11-19T02:37:57.080Z,63.89
2022-11-19T02:41:29.506Z,63.31
2022-11-19T02:45:03.501Z,63.60
2022-11-19T02:48:39.981Z,64.41
2022-11-19T02:51:44.959Z,63.34
2022-11-19T02:54:49.308Z,63.79
2022-11-19T02:58:07.615Z,63.69
2022-11-19T03:01:30.346Z,62.26
2022-11-19T03:04:35.220Z,63.63
2022-11-19T03:07:40.373Z,63.81
2022-11-19T03:11:11.474Z,63.79
2022-11-19T03:15:04.171Z,63.99
2022-11-19T03:18:23.205Z,63.32
2022-11-19T03:22:06.149Z,63.40
2022-11-19T03:25:17.511Z,63.60
2022-11-19T03:28:27.902Z,62.10
2022-11-19T03:31:34.345Z,63.04
2022-11-19T03:34:40.683Z,63.67
2022-11-19T03:37:47.337Z,63.77
2022-11-19T03:40:53.221Z,63.63
2022-11-19T03:44:10.007Z,61.87
2022-11-19T03:47:21.931Z,61.56
2022-11-19T03:50:46.354Z,61.86
2022-11-19T03:53:50.887Z,63.02
2022-11-19T03:56:57.129Z,61.21
2022-11-19T04:00:02.079Z,61.68
2022-11-19T04:03:16.403Z,62.73
2022-11-19T04:06:20.412Z,63.09
2022-11-19T04:09:25.041Z,62.15
2022-11-19T04:12:29.388Z,62.97
2022-11-19T04:15:33.508Z,61.41
2022-11-19T04:18:37.863Z,62.92
2022-11-19T04:21:43.020Z,61.06
2022-11-19T04:24:47.611Z,61.89
2022-11-19T04:27:52.043Z,62.29
2022-11-19T04:30:56.192Z,60.42
2022-11-19T04:34:00.589Z,62.01
2022-11-19T04:37:06.777Z,62.60
2022-11-19T04:40:11.703Z,62.28
2022-11-19T04:43:16.364Z,61.69
2022-11-19T04:46:20.808Z,62.06
2022-11-19T04:49:25.382Z,62.25
2022-11-19T04:52:29.713Z,61.82
2022-11-19T04:55:34.017Z,61.34
2022-11-19T04:58:39.227Z,61.34
2022-11-19T05:01:43.584Z,61.66
2022-11-19T05:04:47.908Z,62.21
2022-11-19T05:07:52.399Z,60.90
2022-11-19T05:10:57.318Z,59.97
2022-11-19T05:14:01.621Z,60.94
2022-11-19T05:17:06.596Z,60.63
2022-11-19T05:20:11.453Z,60.54
2022-11-19T05:23:15.810Z,60.57
2022-11-19T05:26:20.330Z,60.58
2022-11-19T05:29:24.627Z,59.97
2022-11-19T05:32:28.773Z,59.76
2022-11-19T05:35:33.916Z,61.22
2022-11-19T05:38:38.478Z,60.91
2022-11-19T05:41:42.782Z,60.49
2022-11-19T05:44:47.587Z,61.56
2022-11-19T05:47:56.424Z,61.35
2022-11-19T05:51:00.868Z,61.50
2022-11-19T05:54:05.226Z,62.07
2022-11-19T05:57:09.719Z,61.85
2022-11-19T06:00:14.556Z,62.29
2022-11-19T06:03:18.861Z,62.56
2022-11-19T06:06:23.392Z,62.14
2022-11-19T06:09:27.572Z,61.92
2022-11-19T06:12:31.875Z,62.33
2022-11-19T06:15:36.243Z,61.69
2022-11-19T06:18:40.444Z,61.02
2022-11-19T06:21:45.305Z,61.72
2022-11-19T06:24:49.489Z,62.18
2022-11-19T06:27:53.780Z,62.47
2022-11-19T06:30:57.980Z,62.59
2022-11-19T06:34:02.466Z,62.31
2022-11-19T06:37:06.866Z,62.95
2022-11-19T06:40:11.673Z,62.47
2022-11-19T06:43:16.382Z,61.84
2022-11-19T06:46:20.558Z,61.53
2022-11-19T06:49:25.277Z,61.63
2022-11-19T06:52:30.067Z,61.42
2022-11-19T06:55:34.771Z,61.88
2022-11-19T06:58:39.136Z,62.12
2022-11-19T07:01:43.790Z,61.53
2022-11-19T07:04:48.337Z,62.42
2022-11-19T07:07:52.691Z,62.76
2022-11-19T07:10:58.546Z,64.51
2022-11-19T07:14:04.650Z,64.23
2022-11-19T07:17:09.097Z,65.32
2022-11-19T07:20:13.657Z,64.16
2022-11-19T07:23:18.074Z,64.00
2022-11-19T07:26:22.709Z,64.21
2022-11-19T07:29:27.312Z,63.91
2022-11-19T07:32:31.597Z,65.96
2022-11-19T07:35:36.111Z,65.64
2022-11-19T07:38:40.776Z,65.84
2022-11-19T07:42:03.973Z,65.79
2022-11-19T07:45:10.989Z,66.25
2022-11-19T07:48:15.766Z,65.69
2022-11-19T07:51:20.355Z,66.67
2022-11-19T07:54:24.533Z,66.22
2022-11-19T07:57:30.492Z,65.40
2022-11-19T08:00:35.236Z,66.48
2022-11-19T08:03:39.848Z,66.79
2022-11-19T08:06:44.075Z,67.58
2022-11-19T08:09:48.445Z,67.01
2022-11-19T08:13:03.967Z,67.71
2022-11-19T08:16:13.932Z,67.04
2022-11-19T08:19:19.809Z,67.68
2022-11-19T08:22:24.656Z,66.75
2022-11-19T08:25:28.788Z,67.10
2022-11-19T08:28:33.797Z,67.52
2022-11-19T08:31:38.970Z,68.86
2022-11-19T08:34:43.105Z,68.84
2022-11-19T08:37:48.498Z,68.89
2022-11-19T08:41:16.449Z,69.78
2022-11-19T08:44:21.312Z,69.03
2022-11-19T08:47:26.110Z,69.25
2022-11-19T08:50:32.480Z,69.36
2022-11-19T08:53:37.096Z,68.17
2022-11-19T08:56:41.360Z,69.15
2022-11-19T08:59:45.849Z,69.01
2022-11-19T09:02:50.110Z,68.79
2022-11-19T09:06:01.982Z,69.19
2022-11-19T09:09:06.753Z,69.11
2022-11-19T09:12:11.234Z,69.45
2022-11-19T09:15:15.507Z,69.07
2022-11-19T09:18:20.441Z,69.00
2022-11-19T09:21:24.906Z,69.51
2022-11-19T09:24:29.277Z,69.47
2022-11-19T09:27:33.665Z,70.67
2022-11-19T09:30:38.022Z,70.22
2022-11-19T09:33:44.982Z,69.44
2022-11-19T09:36:49.361Z,69.33
2022-11-19T09:39:53.823Z,68.74
2022-11-19T09:43:33.016Z,69.69
2022-11-19T09:47:05.437Z,70.29
2022-11-19T09:50:21.876Z,70.51
2022-11-19T09:53:31.132Z,70.62
2022-11-19T09:56:44.341Z,69.60
2022-11-19T09:59:51.626Z,69.54
2022-11-19T10:02:57.963Z,70.10
2022-11-19T10:06:05.109Z,69.66
2022-11-19T10:09:27.524Z,68.70
2022-11-19T10:12:50.083Z,70.37
2022-11-19T10:16:12.128Z,69.82
2022-11-19T10:19:42.767Z,70.06
2022-11-19T10:22:57.138Z,70.66
2022-11-19T10:26:06.593Z,69.93
2022-11-19T10:29:21.946Z,70.83
2022-11-19T10:32:38.921Z,70.40
2022-11-19T10:35:53.631Z,69.20
2022-11-19T10:39:08.733Z,68.37
2022-11-19T10:42:30.145Z,70.09
2022-11-19T10:45:34.445Z,68.84
2022-11-19T10:48:43.504Z,69.22
2022-11-19T10:51:47.794Z,68.50
2022-11-19T10:54:57.793Z,68.61
2022-11-19T10:58:20.460Z,69.20
2022-11-19T11:01:35.084Z,70.36
2022-11-19T11:05:08.366Z,69.62
2022-11-19T11:08:13.080Z,70.58
2022-11-19T11:11:53.737Z,69.35
2022-11-19T11:15:13.897Z,70.08
2022-11-19T11:18:20.494Z,69.49
2022-11-19T11:21:30.669Z,69.19
2022-11-19T11:24:39.446Z,69.94
2022-11-19T11:27:43.901Z,69.40
2022-11-19T11:31:01.603Z,68.84
2022-11-19T11:34:08.900Z,68.35
2022-11-19T11:37:14.012Z,68.96
2022-11-19T11:40:23.065Z,67.78
2022-11-19T11:43:29.592Z,67.65
2022-11-19T11:46:47.829Z,68.17
2022-11-19T11:50:01.622Z,67.64
2022-11-19T11:53:10.817Z,68.02
2022-11-19T11:56:22.741Z,68.38
2022-11-19T11:59:32.370Z,68.50
2022-11-19T12:02:37.451Z,68.71
2022-11-19T12:06:06.615Z,68.62
2022-11-19T12:09:26.573Z,68.16
2022-11-19T12:12:49.359Z,68.47
2022-11-19T12:15:56.416Z,67.81
2022-11-19T12:19:25.219Z,68.26
2022-11-19T12:22:43.686Z,68.39
2022-11-19T12:26:35.485Z,68.87
2022-11-19T12:30:11.629Z,68.26
2022-11-19T12:33:46.060Z,69.12
2022-11-19T12:37:09.399Z,68.62
2022-11-19T12:40:22.331Z,68.76
2022-11-19T12:43:48.248Z,68.16
2022-11-19T12:47:05.140Z,67.96
2022-11-19T12:50:20.206Z,67.95
2022-11-19T12:54:02.492Z,66.90
2022-11-19T12:57:28.817Z,66.89
2022-11-19T13:00:40.994Z,67.74
2022-11-19T13:04:03.984Z,67.96
2022-11-19T13:07:15.627Z,66.51
2022-11-19T13:10:37.087Z,67.64
2022-11-19T13:13:48.074Z,68.00
2022-11-19T13:16:55.125Z,66.62
2022-11-19T13:20:08.552Z,67.50
2022-11-19T13:23:33.755Z,66.86
2022-11-19T13:26:38.869Z,67.08
2022-11-19T13:30:11.445Z,67.56
2022-11-19T13:33:20.137Z,67.25
2022-11-19T13:36:35.032Z,68.17
2022-11-19T13:39:48.742Z,68.86
2022-11-19T13:47:03.611Z,68.64
2022-11-19T13:50:24.592Z,68.67
2022-11-19T13:53:44.373Z,68.06
2022-11-19T13:56:52.034Z,68.11
2022-11-19T14:00:08.342Z,67.76
2022-11-19T14:03:34.085Z,67.70
2022-11-19T14:06:59.691Z,67.77
2022-11-19T14:10:48.418Z,68.38
2022-11-19T14:14:31.319Z,66.67
2022-11-19T14:18:01.437Z,65.80
2022-11-19T14:22:02.441Z,65.95
2022-11-19T14:25:28.573Z,65.40
2022-11-19T14:28:42.149Z,65.20
2022-11-19T14:32:01.993Z,64.75
2022-11-19T14:35:08.310Z,64.52
2022-11-19T14:38:21.380Z,65.11
2022-11-19T14:41:31.901Z,64.16
2022-11-19T14:44:36.780Z,65.22
2022-11-19T14:47:44.478Z,65.18
2022-11-19T14:51:02.225Z,64.19
2022-11-19T14:54:31.847Z,64.67
2022-11-19T14:57:42.838Z,64.89
2022-11-19T15:00:47.619Z,64.17
2022-11-19T15:04:06.348Z,64.40
2022-11-19T15:07:18.800Z,64.45
2022-11-19T15:10:32.945Z,64.29
2022-11-19T15:13:38.556Z,64.36
2022-11-19T15:16:47.641Z,64.60
2022-11-19T15:20:07.752Z,63.53
2022-11-19T15:23:21.374Z,63.93
2022-11-19T15:26:34.388Z,63.49
2022-11-19T15:30:00.554Z,63.10
2022-11-19T15:33:24.565Z,63.14
2022-11-19T15:36:37.497Z,62.79
2022-11-19T15:39:51.457Z,62.90
2022-11-19T15:43:34.261Z,62.74
2022-11-19T15:46:49.554Z,63.41
2022-11-19T15:49:55.877Z,62.90
2022-11-19T15:53:01.514Z,62.76
2022-11-19T15:56:12.392Z,62.73
2022-11-19T15:59:23.503Z,64.04
2022-11-19T16:02:43.147Z,64.50
2022-11-19T16:06:02.760Z,63.55
2022-11-19T16:09:06.996Z,64.48
2022-11-19T16:12:40.201Z,64.26
2022-11-19T16:16:15.676Z,63.79
2022-11-19T16:19:20.393Z,64.55
2022-11-19T16:22:24.813Z,65.80
2022-11-19T16:25:32.673Z,65.02
2022-11-19T16:28:37.883Z,64.53
2022-11-19T16:31:42.199Z,64.64
2022-11-19T16:34:47.068Z,64.91
2022-11-19T16:37:52.693Z,64.66
2022-11-19T16:41:17.173Z,64.64
2022-11-19T16:44:22.782Z,65.79
2022-11-19T16:47:38.795Z,65.80
2022-11-19T16:50:46.635Z,65.06
2022-11-19T16:53:51.519Z,66.00
2022-11-19T16:56:56.269Z,65.57
2022-11-19T17:00:03.661Z,65.94
2022-11-19T17:03:40.272Z,65.48
2022-11-19T17:06:44.582Z,64.53
2022-11-19T17:09:50.685Z,64.85
2022-11-19T17:12:58.743Z,64.06
2022-11-19T17:16:19.332Z,64.38
2022-11-19T17:19:33.904Z,64.27
2022-11-19T17:22:40.609Z,64.47
2022-11-19T17:26:02.649Z,63.99
2022-11-19T17:29:14.008Z,63.93
2022-11-19T17:32:18.313Z,63.80
2022-11-19T17:35:39.013Z,63.98
2022-11-19T17:38:43.321Z,63.59
2022-11-19T17:42:06.699Z,63.63
2022-11-19T17:45:11.512Z,63.69
2022-11-19T17:48:24.838Z,62.61
2022-11-19T17:51:29.047Z,62.90
2022-11-19T17:54:34.750Z,62.45
2022-11-19T17:57:42.581Z,62.07
2022-11-19T18:00:47.164Z,62.29
2022-11-19T18:03:51.194Z,62.76
2022-11-19T18:06:56.092Z,61.84
2022-11-19T18:10:00.750Z,61.78
2022-11-19T18:13:07.107Z,61.47
2022-11-19T18:16:16.734Z,62.17
2022-11-19T18:19:29.558Z,62.62
2022-11-19T18:22:34.072Z,62.48
2022-11-19T18:25:38.734Z,61.44
2022-11-19T18:28:48.633Z,61.31
2022-11-19T18:31:54.140Z,61.93
2022-11-19T18:35:02.080Z,60.96
2022-11-19T18:38:06.651Z,61.51
2022-11-19T18:41:17.350Z,61.78
2022-11-19T18:44:36.633Z,61.49
2022-11-19T18:47:41.011Z,61.64
2022-11-19T18:50:45.303Z,61.10
2022-11-19T18:53:50.041Z,61.47
2022-11-19T18:56:54.293Z,61.13
2022-11-19T18:59:58.636Z,61.12
2022-11-19T19:03:03.902Z,62.74
2022-11-19T19:06:10.038Z,61.89
2022-11-19T19:09:21.813Z,63.18
2022-11-19T19:12:26.495Z,63.11
2022-11-19T19:15:30.860Z,62.69
2022-11-19T19:18:36.182Z,63.08
2022-11-19T19:21:40.690Z,64.03
2022-11-19T19:24:45.564Z,64.42
2022-11-19T19:27:49.888Z,64.30
2022-11-19T19:30:59.856Z,64.72
2022-11-19T19:34:04.510Z,65.63
2022-11-19T19:37:09.228Z,66.42
2022-11-19T19:40:13.945Z,67.12
2022-11-19T19:43:19.255Z,66.84
2022-11-19T19:46:25.552Z,68.49
2022-11-19T19:49:32.450Z,68.18
2022-11-19T19:52:40.513Z,68.02
2022-11-19T19:55:44.623Z,70.23
2022-11-19T19:58:51.565Z,70.17
2022-11-19T20:01:55.955Z,70.89
2022-11-19T20:05:00.444Z,70.30
2022-11-19T20:08:04.791Z,70.76
2022-11-19T20:11:15.662Z,71.21
2022-11-19T20:14:21.446Z,70.31
2022-11-19T20:17:25.757Z,71.10
2022-11-19T20:20:30.011Z,70.54
2022-11-19T20:23:34.684Z,71.10
2022-11-19T20:26:38.943Z,71.33
2022-11-19T20:29:43.212Z,71.37
2022-11-19T20:32:49.579Z,72.94
2022-11-19T20:35:54.307Z,72.25
2022-11-19T20:38:59.778Z,73.28
2022-11-19T20:42:22.249Z,72.55
2022-11-19T20:45:26.670Z,72.95
2022-11-19T20:48:30.778Z,72.98
2022-11-19T20:51:38.549Z,73.41
2022-11-19T20:54:43.254Z,72.98
2022-11-19T20:57:47.617Z,73.09
2022-11-19T21:00:59.022Z,74.97
2022-11-19T21:04:03.777Z,75.63
2022-11-19T21:07:08.064Z,77.59
2022-11-19T21:10:13.417Z,77.66
2022-11-19T21:13:17.550Z,78.73
2022-11-19T21:16:24.836Z,78.26
2022-11-19T21:19:29.505Z,79.49
2022-11-19T21:22:33.958Z,79.69
2022-11-19T21:25:38.553Z,79.96
2022-11-19T21:28:43.279Z,80.08
2022-11-19T21:31:49.527Z,80.42
2022-11-19T21:34:53.818Z,80.72
2022-11-19T21:37:58.113Z,82.95
2022-11-19T21:41:02.505Z,82.83
2022-11-19T21:44:07.184Z,83.94
2022-11-19T21:47:12.508Z,83.85
2022-11-19T21:50:17.784Z,83.35
2022-11-19T21:53:23.053Z,84.67
2022-11-19T21:56:33.668Z,84.72
2022-11-19T21:59:41.409Z,83.91
2022-11-19T22:02:45.668Z,83.91
2022-11-19T22:06:01.679Z,83.88
2022-11-19T22:09:05.787Z,83.71
2022-11-19T22:12:10.003Z,83.40
2022-11-19T22:15:14.608Z,84.11
2022-11-19T22:18:19.176Z,85.45
2022-11-19T22:21:23.785Z,85.57
2022-11-19T22:24:28.211Z,85.11
2022-11-19T22:27:32.663Z,84.63
2022-11-19T22:30:37.084Z,86.52
2022-11-19T22:33:43.568Z,86.34
2022-11-19T22:36:48.117Z,86.06
2022-11-19T22:39:52.554Z,86.68
2022-11-19T22:42:56.658Z,87.09
2022-11-19T22:46:01.535Z,87.09
2022-11-19T22:49:05.684Z,87.57
2022-11-19T22:52:10.107Z,86.68
2022-11-19T22:55:14.822Z,86.13
2022-11-19T22:58:19.203Z,86.10
2022-11-19T23:01:25.120Z,86.43
2022-11-19T23:04:30.108Z,85.97
2022-11-19T23:07:34.468Z,85.01
2022-11-19T23:10:38.773Z,86.34
2022-11-19T23:13:45.248Z,86.11
2022-11-19T23:16:49.581Z,88.52
2022-11-19T23:19:53.864Z,88.33
2022-11-19T23:22:58.808Z,88.59
2022-11-19T23:26:04.361Z,89.25
2022-11-19T23:29:09.906Z,89.21
2022-11-19T23:32:14.066Z,89.59
2022-11-19T23:35:18.670Z,90.85
2022-11-19T23:38:22.921Z,89.02
2022-11-19T23:41:28.564Z,89.34
2022-11-19T23:44:32.648Z,89.13
2022-11-19T23:47:39.914Z,88.54
2022-11-19T23:50:44.415Z,88.42
2022-11-19T23:53:49.237Z,88.39
2022-11-19T23:56:53.489Z,89.26
2022-11-19T23:59:57.910Z,87.78
